Drummond Island, MI

4:28 AM EDT on March 24, 2017 (GMT -0400)
Potagannissing Bay Front | | Change Station
Active Advisory: Winter Weather Advisory

Elev 587 ft 46.06 °N, 83.67 °W | Updated 2 seconds ago

Light Snow
Light Snow
32.2 °F
Feels Like 26 °F
N
7.0
Wind Variable Wind from South
Gusts 16.0 mph

Today
High -- | Low -- °F
--% Chance of Precip.
Yesterday
High -- | Low -- °F
Precip. -- in
Pressure 29.98 in
Visibility 4.0 miles
Clouds Scattered Clouds 600 ft
Mostly Cloudy 2100 ft
Overcast 3700 ft
Windchill 26 °F
Dew Point 31 °F
Humidity 95%
Rainfall 0.11 in
Snow Depth Not available.
7:29 AM 7:53 PM
Waning Crescent, 17% visible
METAR KDRM 240815Z AUTO 16004KT 4SM -SN SCT006 BKN021 OVC037 00/00 A2998 RMK AO2 T00001005
Pressure 29.98 in
Visibility 4.0 miles
Clouds Scattered Clouds 600 ft
Mostly Cloudy 2100 ft
Overcast 3700 ft
Windchill 26 °F
Dew Point 31 °F
Humidity 95%
Rainfall 0.11 in
Snow Depth Not available.
7:29 AM 7:53 PM
Waning Crescent, 17% visible
METAR KDRM 240815Z AUTO 16004KT 4SM -SN SCT006 BKN021 OVC037 00/00 A2998 RMK AO2 T00001005

Get Your Daily Forecast Email!

Thanks for signing up!

Be on the lookout for a verification email in your inbox.

You'll start receiving severe weather alerts in your inbox..

×

10-Day Weather Forecast

Almanac

Astronomy

Mar. 24, 2017 Rise Set
Actual Time
Civil Twilight
Nautical Twilight
Astronomical Twilight
Moon
Length of Visible Light
Length of Day
Tomorrow will be .
, % of the Moon is Illuminated

Today's Extremes

State Highs State Lows

Community

WunderPhotos

Upload Photos

1,962,540 photos uploaded!

WunderBlog® & News

Nearby

Air Quality

  Air Quality AQ Index Pollutant
Not available.

Snow Depth

Station Depth Elevation

Earthquake Activity

City Distance Mag. Time & Date
Minimum magnitude displayed is 2.5.

Earthquake Activity

City Distance Mag. Time & Date
Minimum magnitude displayed is 2.5.

Coastal Water Temperatures

Place Temperature

Stations

Nearby Weather Stations

Station Location Temp. Windchill Dew Point Humidity Wind Precip. Elev Updated Type
                   

Watches & Warnings

Winter Weather Advisory
Issued: 4:17 AM EDT Mar. 24, 2017 – National Weather Service

... Winter Weather Advisory remains in effect until 11 am EDT this
morning...

* light freezing rain will continue across the area through mid
morning before becoming all rain as temperatures warm.

* Total ice accumulations of around one tenth of an inch are
expected.

* The ice will result in hazardous travel conditions... including
during the morning commute this morning.

Precautionary/preparedness actions...

A Winter Weather Advisory means that periods of freezing rain
will cause travel difficulties. Be prepared for slippery roads.
For the latest Road conditions... go to the mdot website at
Michigan.Gov.